sensor_id;sensor_type;location;lat;lon;timestamp;temperature;humidity
21340;DHT22;10828;47.064;15.422;2023-03-31T00:00:20;10.40;99.90
21340;DHT22;10828;47.064;15.422;2023-03-31T00:02:49;10.40;99.90
21340;DHT22;10828;47.064;15.422;2023-03-31T00:05:19;10.40;99.90
21340;DHT22;10828;47.064;15.422;2023-03-31T00:07:46;10.30;99.90
21340;DHT22;10828;47.064;15.422;2023-03-31T00:10:16;10.40;99.90
21340;DHT22;10828;47.064;15.422;2023-03-31T00:12:43;10.40;99.90
21340;DHT22;10828;47.064;15.422;2023-03-31T00:15:10;10.30;99.90
21340;DHT22;10828;47.064;15.422;2023-03-31T00:17:36;10.30;99.90
21340;DHT22;10828;47.064;15.422;2023-03-31T00:20:02;10.20;99.90
21340;DHT22;10828;47.064;15.422;2023-03-31T00:22:30;10.10;99.90
21340;DHT22;10828;47.064;15.422;2023-03-31T00:24:56;10.10;99.90
21340;DHT22;10828;47.064;15.422;2023-03-31T00:27:21;10.00;99.90
21340;DHT22;10828;47.064;15.422;2023-03-31T00:29:48;10.00;99.90
21340;DHT22;10828;47.064;15.422;2023-03-31T00:32:15;10.00;99.90
21340;DHT22;10828;47.064;15.422;2023-03-31T00:34:42;10.00;99.90
21340;DHT22;10828;47.064;15.422;2023-03-31T00:37:09;10.00;99.90
21340;DHT22;10828;47.064;15.422;2023-03-31T00:39:40;10.00;99.90
21340;DHT22;10828;47.064;15.422;2023-03-31T00:42:10;9.90;99.90
21340;DHT22;10828;47.064;15.422;2023-03-31T00:48:14;9.80;99.90
21340;DHT22;10828;47.064;15.422;2023-03-31T00:50:48;9.80;99.90
21340;DHT22;10828;47.064;15.422;2023-03-31T00:53:16;9.80;99.90
21340;DHT22;10828;47.064;15.422;2023-03-31T00:55:49;9.80;99.90
21340;DHT22;10828;47.064;15.422;2023-03-31T00:58:18;9.80;99.90
21340;DHT22;10828;47.064;15.422;2023-03-31T01:00:47;9.80;99.90
21340;DHT22;10828;47.064;15.422;2023-03-31T01:03:16;9.90;99.90
21340;DHT22;10828;47.064;15.422;2023-03-31T01:05:48;9.80;99.90
21340;DHT22;10828;47.064;15.422;2023-03-31T01:08:17;9.80;99.90
21340;DHT22;10828;47.064;15.422;2023-03-31T01:10:57;9.80;99.90
21340;DHT22;10828;47.064;15.422;2023-03-31T01:13:30;9.80;99.90
21340;DHT22;10828;47.064;15.422;2023-03-31T01:15:59;9.90;99.90
21340;DHT22;10828;47.064;15.422;2023-03-31T01:18:26;9.80;99.90
21340;DHT22;10828;47.064;15.422;2023-03-31T01:43:36;10.00;99.90
21340;DHT22;10828;47.064;15.422;2023-03-31T01:57:29;9.80;99.90
21340;DHT22;10828;47.064;15.422;2023-03-31T02:00:14;9.60;99.90
21340;DHT22;10828;47.064;15.422;2023-03-31T02:05:39;9.40;99.90
21340;DHT22;10828;47.064;15.422;2023-03-31T02:08:09;9.40;99.90
21340;DHT22;10828;47.064;15.422;2023-03-31T02:10:37;9.40;99.90
21340;DHT22;10828;47.064;15.422;2023-03-31T02:13:06;9.40;99.90
21340;DHT22;10828;47.064;15.422;2023-03-31T02:15:39;9.40;99.90
21340;DHT22;10828;47.064;15.422;2023-03-31T02:18:10;9.40;99.90
21340;DHT22;10828;47.064;15.422;2023-03-31T02:20:41;9.40;99.90
21340;DHT22;10828;47.064;15.422;2023-03-31T02:23:11;9.30;99.90
21340;DHT22;10828;47.064;15.422;2023-03-31T02:25:52;9.40;99.90
21340;DHT22;10828;47.064;15.422;2023-03-31T02:28:22;9.40;99.90
21340;DHT22;10828;47.064;15.422;2023-03-31T02:33:27;9.20;99.90
21340;DHT22;10828;47.064;15.422;2023-03-31T02:35:54;9.20;99.90
21340;DHT22;10828;47.064;15.422;2023-03-31T02:38:21;9.20;99.90
21340;DHT22;10828;47.064;15.422;2023-03-31T02:40:47;9.20;99.90
21340;DHT22;10828;47.064;15.422;2023-03-31T02:43:12;9.20;99.90
21340;DHT22;10828;47.064;15.422;2023-03-31T02:45:50;9.20;99.90
21340;DHT22;10828;47.064;15.422;2023-03-31T02:48:28;9.20;99.90
21340;DHT22;10828;47.064;15.422;2023-03-31T02:51:08;9.20;99.90
21340;DHT22;10828;47.064;15.422;2023-03-31T02:53:51;9.10;99.90
21340;DHT22;10828;47.064;15.422;2023-03-31T03:02:06;9.00;99.90
21340;DHT22;10828;47.064;15.422;2023-03-31T03:05:09;8.80;99.90
21340;DHT22;10828;47.064;15.422;2023-03-31T03:07:41;8.80;99.90
21340;DHT22;10828;47.064;15.422;2023-03-31T03:12:52;8.70;99.90
21340;DHT22;10828;47.064;15.422;2023-03-31T03:15:31;8.70;99.90
21340;DHT22;10828;47.064;15.422;2023-03-31T03:17:59;8.70;99.90
21340;DHT22;10828;47.064;15.422;2023-03-31T03:20:25;8.60;99.90
21340;DHT22;10828;47.064;15.422;2023-03-31T03:22:53;8.50;99.90
21340;DHT22;10828;47.064;15.422;2023-03-31T03:25:34;8.40;99.90
21340;DHT22;10828;47.064;15.422;2023-03-31T03:28:02;8.40;99.90
21340;DHT22;10828;47.064;15.422;2023-03-31T03:30:36;8.40;99.90
21340;DHT22;10828;47.064;15.422;2023-03-31T03:33:06;8.40;99.90
21340;DHT22;10828;47.064;15.422;2023-03-31T03:35:32;8.40;99.90
21340;DHT22;10828;47.064;15.422;2023-03-31T03:38:00;8.40;99.90
21340;DHT22;10828;47.064;15.422;2023-03-31T03:40:30;8.40;99.90
21340;DHT22;10828;47.064;15.422;2023-03-31T03:42:57;8.50;99.90
21340;DHT22;10828;47.064;15.422;2023-03-31T03:45:24;8.50;99.90
21340;DHT22;10828;47.064;15.422;2023-03-31T03:47:50;8.40;99.90
21340;DHT22;10828;47.064;15.422;2023-03-31T03:50:19;8.40;99.90
21340;DHT22;10828;47.064;15.422;2023-03-31T03:52:45;8.40;99.90
21340;DHT22;10828;47.064;15.422;2023-03-31T03:55:12;8.40;99.90
21340;DHT22;10828;47.064;15.422;2023-03-31T03:57:42;8.40;99.90
21340;DHT22;10828;47.064;15.422;2023-03-31T04:00:09;8.40;99.90
21340;DHT22;10828;47.064;15.422;2023-03-31T04:02:39;8.40;99.90
21340;DHT22;10828;47.064;15.422;2023-03-31T04:05:05;8.40;99.90
21340;DHT22;10828;47.064;15.422;2023-03-31T04:07:32;8.40;99.90
21340;DHT22;10828;47.064;15.422;2023-03-31T04:09:58;8.50;99.90
21340;DHT22;10828;47.064;15.422;2023-03-31T04:12:28;8.50;99.90
21340;DHT22;10828;47.064;15.422;2023-03-31T04:14:54;8.50;99.90
21340;DHT22;10828;47.064;15.422;2023-03-31T04:17:21;8.50;99.90
21340;DHT22;10828;47.064;15.422;2023-03-31T04:19:58;8.40;99.90
21340;DHT22;10828;47.064;15.422;2023-03-31T04:22:28;8.30;99.90
21340;DHT22;10828;47.064;15.422;2023-03-31T04:25:03;8.30;99.90
21340;DHT22;10828;47.064;15.422;2023-03-31T04:27:29;8.40;99.90
21340;DHT22;10828;47.064;15.422;2023-03-31T04:29:56;8.40;99.90
21340;DHT22;10828;47.064;15.422;2023-03-31T04:32:24;8.30;99.90
21340;DHT22;10828;47.064;15.422;2023-03-31T04:34:50;8.30;99.90
21340;DHT22;10828;47.064;15.422;2023-03-31T04:37:16;8.20;99.90
21340;DHT22;10828;47.064;15.422;2023-03-31T04:39:42;8.20;99.90
21340;DHT22;10828;47.064;15.422;2023-03-31T04:42:11;8.20;99.90
21340;DHT22;10828;47.064;15.422;2023-03-31T04:44:37;8.20;99.90
21340;DHT22;10828;47.064;15.422;2023-03-31T04:47:04;8.20;99.90
21340;DHT22;10828;47.064;15.422;2023-03-31T04:49:32;8.10;99.90
21340;DHT22;10828;47.064;15.422;2023-03-31T04:51:59;8.00;99.90
21340;DHT22;10828;47.064;15.422;2023-03-31T04:54:25;7.90;99.90
21340;DHT22;10828;47.064;15.422;2023-03-31T04:56:52;7.90;99.90
21340;DHT22;10828;47.064;15.422;2023-03-31T04:59:18;7.90;99.90
21340;DHT22;10828;47.064;15.422;2023-03-31T05:01:45;7.90;99.90
21340;DHT22;10828;47.064;15.422;2023-03-31T05:04:21;8.00;99.90
21340;DHT22;10828;47.064;15.422;2023-03-31T05:06:47;8.00;99.90
21340;DHT22;10828;47.064;15.422;2023-03-31T05:09:14;8.00;99.90
21340;DHT22;10828;47.064;15.422;2023-03-31T05:11:42;8.00;99.90
21340;DHT22;10828;47.064;15.422;2023-03-31T05:14:07;8.00;99.90
21340;DHT22;10828;47.064;15.422;2023-03-31T05:16:42;8.00;99.90
21340;DHT22;10828;47.064;15.422;2023-03-31T05:19:09;8.00;99.90
21340;DHT22;10828;47.064;15.422;2023-03-31T05:21:44;8.00;99.90
21340;DHT22;10828;47.064;15.422;2023-03-31T05:24:11;8.00;99.90
21340;DHT22;10828;47.064;15.422;2023-03-31T05:26:36;8.00;99.90
21340;DHT22;10828;47.064;15.422;2023-03-31T05:29:03;7.90;99.90
21340;DHT22;10828;47.064;15.422;2023-03-31T05:31:32;8.00;99.90
21340;DHT22;10828;47.064;15.422;2023-03-31T05:34:00;8.10;99.90
21340;DHT22;10828;47.064;15.422;2023-03-31T05:36:28;8.10;99.90
21340;DHT22;10828;47.064;15.422;2023-03-31T05:38:54;8.00;99.90
21340;DHT22;10828;47.064;15.422;2023-03-31T05:41:29;8.10;99.90
21340;DHT22;10828;47.064;15.422;2023-03-31T05:43:56;8.20;99.90
21340;DHT22;10828;47.064;15.422;2023-03-31T05:46:23;8.10;99.90
21340;DHT22;10828;47.064;15.422;2023-03-31T05:48:51;8.10;99.90
21340;DHT22;10828;47.064;15.422;2023-03-31T05:51:18;8.10;99.90
21340;DHT22;10828;47.064;15.422;2023-03-31T05:53:47;8.20;99.90
21340;DHT22;10828;47.064;15.422;2023-03-31T05:56:13;8.20;99.90
21340;DHT22;10828;47.064;15.422;2023-03-31T05:58:40;8.20;99.90
21340;DHT22;10828;47.064;15.422;2023-03-31T06:01:09;8.20;99.90
21340;DHT22;10828;47.064;15.422;2023-03-31T06:03:38;8.20;99.90
21340;DHT22;10828;47.064;15.422;2023-03-31T06:06:09;8.30;99.90
21340;DHT22;10828;47.064;15.422;2023-03-31T06:08:36;8.30;99.90
21340;DHT22;10828;47.064;15.422;2023-03-31T06:11:06;8.30;99.90
21340;DHT22;10828;47.064;15.422;2023-03-31T06:13:33;8.30;99.90
21340;DHT22;10828;47.064;15.422;2023-03-31T06:16:06;8.30;99.90
21340;DHT22;10828;47.064;15.422;2023-03-31T06:18:34;8.30;99.90
21340;DHT22;10828;47.064;15.422;2023-03-31T06:21:01;8.30;99.90
21340;DHT22;10828;47.064;15.422;2023-03-31T06:23:28;8.30;99.90
21340;DHT22;10828;47.064;15.422;2023-03-31T06:26:03;8.30;99.90
21340;DHT22;10828;47.064;15.422;2023-03-31T06:28:31;8.30;99.90
21340;DHT22;10828;47.064;15.422;2023-03-31T06:31:11;8.30;99.90
21340;DHT22;10828;47.064;15.422;2023-03-31T06:33:49;8.30;99.90
21340;DHT22;10828;47.064;15.422;2023-03-31T06:36:17;8.30;99.90
21340;DHT22;10828;47.064;15.422;2023-03-31T06:38:44;8.40;99.90
21340;DHT22;10828;47.064;15.422;2023-03-31T06:41:17;8.40;99.90
21340;DHT22;10828;47.064;15.422;2023-03-31T06:43:46;8.50;99.90
21340;DHT22;10828;47.064;15.422;2023-03-31T06:46:13;8.50;99.90
21340;DHT22;10828;47.064;15.422;2023-03-31T06:48:39;8.60;99.90
21340;DHT22;10828;47.064;15.422;2023-03-31T06:51:06;8.60;99.90
21340;DHT22;10828;47.064;15.422;2023-03-31T06:53:36;8.70;99.90
21340;DHT22;10828;47.064;15.422;2023-03-31T06:56:03;8.80;99.90
21340;DHT22;10828;47.064;15.422;2023-03-31T06:58:29;8.90;99.90
21340;DHT22;10828;47.064;15.422;2023-03-31T07:00:55;8.90;99.90
21340;DHT22;10828;47.064;15.422;2023-03-31T07:03:20;9.00;99.90
21340;DHT22;10828;47.064;15.422;2023-03-31T07:05:51;9.10;99.90
21340;DHT22;10828;47.064;15.422;2023-03-31T07:08:19;9.20;99.90
21340;DHT22;10828;47.064;15.422;2023-03-31T07:10:48;9.30;99.90
21340;DHT22;10828;47.064;15.422;2023-03-31T07:13:16;9.30;99.90
21340;DHT22;10828;47.064;15.422;2023-03-31T07:15:46;9.40;99.90
21340;DHT22;10828;47.064;15.422;2023-03-31T07:18:11;9.50;99.90
21340;DHT22;10828;47.064;15.422;2023-03-31T07:20:42;9.60;99.90
21340;DHT22;10828;47.064;15.422;2023-03-31T07:23:10;9.70;99.90
21340;DHT22;10828;47.064;15.422;2023-03-31T07:25:37;9.70;99.90
21340;DHT22;10828;47.064;15.422;2023-03-31T07:28:04;9.80;99.90
21340;DHT22;10828;47.064;15.422;2023-03-31T07:30:31;9.80;99.90
21340;DHT22;10828;47.064;15.422;2023-03-31T07:32:58;9.90;99.90
21340;DHT22;10828;47.064;15.422;2023-03-31T07:35:24;10.00;99.90
21340;DHT22;10828;47.064;15.422;2023-03-31T07:37:52;10.10;99.90
21340;DHT22;10828;47.064;15.422;2023-03-31T07:40:24;10.10;99.90
21340;DHT22;10828;47.064;15.422;2023-03-31T07:42:53;10.20;99.90
21340;DHT22;10828;47.064;15.422;2023-03-31T07:45:20;10.30;99.90
21340;DHT22;10828;47.064;15.422;2023-03-31T07:47:47;10.40;99.90
21340;DHT22;10828;47.064;15.422;2023-03-31T07:50:15;10.50;99.90
21340;DHT22;10828;47.064;15.422;2023-03-31T07:52:43;10.70;99.90
21340;DHT22;10828;47.064;15.422;2023-03-31T07:55:09;10.90;99.90
21340;DHT22;10828;47.064;15.422;2023-03-31T07:57:41;10.90;99.90
21340;DHT22;10828;47.064;15.422;2023-03-31T08:00:09;11.10;99.90
21340;DHT22;10828;47.064;15.422;2023-03-31T08:02:39;11.20;99.90
21340;DHT22;10828;47.064;15.422;2023-03-31T08:05:07;11.20;99.90
21340;DHT22;10828;47.064;15.422;2023-03-31T08:07:45;11.30;99.90
21340;DHT22;10828;47.064;15.422;2023-03-31T08:10:21;11.50;99.90
21340;DHT22;10828;47.064;15.422;2023-03-31T08:12:48;11.50;99.90
21340;DHT22;10828;47.064;15.422;2023-03-31T08:15:17;11.50;99.90
21340;DHT22;10828;47.064;15.422;2023-03-31T08:17:44;11.60;99.90
21340;DHT22;10828;47.064;15.422;2023-03-31T08:20:12;11.70;99.90
21340;DHT22;10828;47.064;15.422;2023-03-31T08:22:44;11.80;99.90
21340;DHT22;10828;47.064;15.422;2023-03-31T08:25:11;11.90;99.90
21340;DHT22;10828;47.064;15.422;2023-03-31T08:27:38;12.10;99.90
21340;DHT22;10828;47.064;15.422;2023-03-31T08:30:12;12.10;99.90
21340;DHT22;10828;47.064;15.422;2023-03-31T08:32:40;12.20;99.90
21340;DHT22;10828;47.064;15.422;2023-03-31T08:35:06;12.30;99.90
21340;DHT22;10828;47.064;15.422;2023-03-31T08:37:36;12.50;99.90
21340;DHT22;10828;47.064;15.422;2023-03-31T08:40:06;12.60;99.90
21340;DHT22;10828;47.064;15.422;2023-03-31T08:42:41;12.80;99.90
21340;DHT22;10828;47.064;15.422;2023-03-31T08:45:22;12.90;99.90
21340;DHT22;10828;47.064;15.422;2023-03-31T08:47:55;13.00;99.90
21340;DHT22;10828;47.064;15.422;2023-03-31T08:50:28;13.10;99.90
21340;DHT22;10828;47.064;15.422;2023-03-31T08:55:58;13.40;99.90
21340;DHT22;10828;47.064;15.422;2023-03-31T09:01:06;13.60;99.90
21340;DHT22;10828;47.064;15.422;2023-03-31T09:09:01;13.80;99.90
21340;DHT22;10828;47.064;15.422;2023-03-31T09:11:50;14.10;99.90
21340;DHT22;10828;47.064;15.422;2023-03-31T09:14:37;14.20;99.90
21340;DHT22;10828;47.064;15.422;2023-03-31T09:17:15;14.40;99.90
21340;DHT22;10828;47.064;15.422;2023-03-31T09:20:30;14.70;99.90
21340;DHT22;10828;47.064;15.422;2023-03-31T09:23:24;14.80;99.90
21340;DHT22;10828;47.064;15.422;2023-03-31T09:25:56;15.00;99.90
21340;DHT22;10828;47.064;15.422;2023-03-31T09:28:43;15.20;99.90
21340;DHT22;10828;47.064;15.422;2023-03-31T09:31:18;15.30;99.90
21340;DHT22;10828;47.064;15.422;2023-03-31T09:33:50;15.70;99.90
21340;DHT22;10828;47.064;15.422;2023-03-31T09:36:20;16.00;99.90
21340;DHT22;10828;47.064;15.422;2023-03-31T09:38:55;16.10;99.90
21340;DHT22;10828;47.064;15.422;2023-03-31T09:41:22;16.30;99.90
21340;DHT22;10828;47.064;15.422;2023-03-31T09:43:49;16.20;99.90
21340;DHT22;10828;47.064;15.422;2023-03-31T09:46:32;16.30;99.90
21340;DHT22;10828;47.064;15.422;2023-03-31T09:49:05;16.20;99.90
21340;DHT22;10828;47.064;15.422;2023-03-31T09:51:42;16.10;99.90
21340;DHT22;10828;47.064;15.422;2023-03-31T09:54:48;16.20;99.90
21340;DHT22;10828;47.064;15.422;2023-03-31T09:57:28;16.20;99.90
21340;DHT22;10828;47.064;15.422;2023-03-31T10:02:54;16.30;99.90
21340;DHT22;10828;47.064;15.422;2023-03-31T10:13:45;17.10;99.90
21340;DHT22;10828;47.064;15.422;2023-03-31T10:19:35;16.50;99.90
21340;DHT22;10828;47.064;15.422;2023-03-31T10:22:05;16.20;99.90
21340;DHT22;10828;47.064;15.422;2023-03-31T10:24:40;16.10;99.90
21340;DHT22;10828;47.064;15.422;2023-03-31T10:27:18;16.00;99.90
21340;DHT22;10828;47.064;15.422;2023-03-31T10:29:51;15.90;99.90
21340;DHT22;10828;47.064;15.422;2023-03-31T10:34:50;15.70;99.90
21340;DHT22;10828;47.064;15.422;2023-03-31T10:37:22;15.60;99.90
21340;DHT22;10828;47.064;15.422;2023-03-31T10:40:13;15.60;99.90
21340;DHT22;10828;47.064;15.422;2023-03-31T10:42:48;15.60;99.90
21340;DHT22;10828;47.064;15.422;2023-03-31T10:45:36;15.60;99.90
21340;DHT22;10828;47.064;15.422;2023-03-31T10:48:03;15.50;99.90
21340;DHT22;10828;47.064;15.422;2023-03-31T10:50:34;15.60;99.90
21340;DHT22;10828;47.064;15.422;2023-03-31T10:53:13;15.50;99.90
21340;DHT22;10828;47.064;15.422;2023-03-31T10:58:59;15.50;99.90
21340;DHT22;10828;47.064;15.422;2023-03-31T11:12:35;15.50;99.90
21340;DHT22;10828;47.064;15.422;2023-03-31T11:20:22;15.80;99.90
21340;DHT22;10828;47.064;15.422;2023-03-31T11:23:01;16.10;99.90
21340;DHT22;10828;47.064;15.422;2023-03-31T11:25:57;16.30;99.90
21340;DHT22;10828;47.064;15.422;2023-03-31T11:31:44;16.40;99.90
21340;DHT22;10828;47.064;15.422;2023-03-31T11:43:04;16.40;99.90
21340;DHT22;10828;47.064;15.422;2023-03-31T11:45:35;16.50;99.90
21340;DHT22;10828;47.064;15.422;2023-03-31T11:48:16;16.70;99.90
21340;DHT22;10828;47.064;15.422;2023-03-31T11:50:47;16.90;99.90
21340;DHT22;10828;47.064;15.422;2023-03-31T11:53:17;16.90;99.90
21340;DHT22;10828;47.064;15.422;2023-03-31T11:55:47;16.80;99.90
21340;DHT22;10828;47.064;15.422;2023-03-31T11:58:17;16.90;99.90
21340;DHT22;10828;47.064;15.422;2023-03-31T12:00:49;16.90;99.90
21340;DHT22;10828;47.064;15.422;2023-03-31T12:03:23;17.00;99.90
21340;DHT22;10828;47.064;15.422;2023-03-31T12:06:02;17.30;99.90
21340;DHT22;10828;47.064;15.422;2023-03-31T12:08:38;17.50;99.90
21340;DHT22;10828;47.064;15.422;2023-03-31T12:11:23;17.80;99.90
21340;DHT22;10828;47.064;15.422;2023-03-31T12:14:10;18.00;99.90
21340;DHT22;10828;47.064;15.422;2023-03-31T12:16:47;18.10;99.90
21340;DHT22;10828;47.064;15.422;2023-03-31T12:19:27;18.10;99.90
21340;DHT22;10828;47.064;15.422;2023-03-31T12:21:59;17.90;99.90
21340;DHT22;10828;47.064;15.422;2023-03-31T12:24:30;17.60;99.90
21340;DHT22;10828;47.064;15.422;2023-03-31T12:29:40;17.40;99.90
21340;DHT22;10828;47.064;15.422;2023-03-31T12:32:15;17.30;99.90
21340;DHT22;10828;47.064;15.422;2023-03-31T12:34:59;17.40;99.90
21340;DHT22;10828;47.064;15.422;2023-03-31T12:57:24;17.60;99.90
21340;DHT22;10828;47.064;15.422;2023-03-31T13:00:29;17.50;99.90
21340;DHT22;10828;47.064;15.422;2023-03-31T13:05:58;17.50;99.90
21340;DHT22;10828;47.064;15.422;2023-03-31T13:08:50;17.50;99.90
21340;DHT22;10828;47.064;15.422;2023-03-31T13:11:21;17.50;99.90
21340;DHT22;10828;47.064;15.422;2023-03-31T13:14:01;17.60;99.90
21340;DHT22;10828;47.064;15.422;2023-03-31T13:16:32;17.50;99.90
21340;DHT22;10828;47.064;15.422;2023-03-31T13:18:59;17.60;99.90
21340;DHT22;10828;47.064;15.422;2023-03-31T13:21:25;17.50;99.90
21340;DHT22;10828;47.064;15.422;2023-03-31T13:23:51;17.60;99.90
21340;DHT22;10828;47.064;15.422;2023-03-31T13:26:39;17.80;99.90
21340;DHT22;10828;47.064;15.422;2023-03-31T13:29:21;18.00;99.90
21340;DHT22;10828;47.064;15.422;2023-03-31T13:34:31;18.00;99.90
21340;DHT22;10828;47.064;15.422;2023-03-31T13:50:53;17.30;99.90
21340;DHT22;10828;47.064;15.422;2023-03-31T13:59:13;17.00;99.90
21340;DHT22;10828;47.064;15.422;2023-03-31T14:07:21;16.90;99.90
21340;DHT22;10828;47.064;15.422;2023-03-31T14:09:51;16.90;99.90
21340;DHT22;10828;47.064;15.422;2023-03-31T14:15:00;16.80;99.90
21340;DHT22;10828;47.064;15.422;2023-03-31T14:17:37;16.70;99.90
21340;DHT22;10828;47.064;15.422;2023-03-31T14:20:26;16.70;99.90
21340;DHT22;10828;47.064;15.422;2023-03-31T14:23:11;16.70;99.90
21340;DHT22;10828;47.064;15.422;2023-03-31T14:28:34;16.70;99.90
21340;DHT22;10828;47.064;15.422;2023-03-31T14:31:25;16.70;99.90
21340;DHT22;10828;47.064;15.422;2023-03-31T14:36:59;16.60;99.90
21340;DHT22;10828;47.064;15.422;2023-03-31T14:39:35;16.70;99.90
21340;DHT22;10828;47.064;15.422;2023-03-31T14:42:05;16.70;99.90
21340;DHT22;10828;47.064;15.422;2023-03-31T14:44:35;16.80;99.90
21340;DHT22;10828;47.064;15.422;2023-03-31T14:47:01;17.00;99.90
21340;DHT22;10828;47.064;15.422;2023-03-31T14:49:37;16.90;99.90
21340;DHT22;10828;47.064;15.422;2023-03-31T14:52:18;16.90;99.90
21340;DHT22;10828;47.064;15.422;2023-03-31T14:54:47;16.80;99.90
21340;DHT22;10828;47.064;15.422;2023-03-31T14:57:18;16.80;99.90
21340;DHT22;10828;47.064;15.422;2023-03-31T14:59:50;16.80;99.90
21340;DHT22;10828;47.064;15.422;2023-03-31T15:02:41;16.80;99.90
21340;DHT22;10828;47.064;15.422;2023-03-31T15:05:09;16.80;99.90
21340;DHT22;10828;47.064;15.422;2023-03-31T15:07:41;16.70;99.90
21340;DHT22;10828;47.064;15.422;2023-03-31T15:10:11;16.70;99.90
21340;DHT22;10828;47.064;15.422;2023-03-31T15:12:49;16.70;99.90
21340;DHT22;10828;47.064;15.422;2023-03-31T15:15:25;16.70;99.90
21340;DHT22;10828;47.064;15.422;2023-03-31T15:17:53;16.70;99.90
21340;DHT22;10828;47.064;15.422;2023-03-31T15:20:35;16.70;99.90
21340;DHT22;10828;47.064;15.422;2023-03-31T15:23:19;16.70;99.90
21340;DHT22;10828;47.064;15.422;2023-03-31T15:25:52;16.60;99.90
21340;DHT22;10828;47.064;15.422;2023-03-31T15:28:20;16.60;99.90
21340;DHT22;10828;47.064;15.422;2023-03-31T15:30:48;16.60;99.90
21340;DHT22;10828;47.064;15.422;2023-03-31T15:33:30;16.50;99.90
21340;DHT22;10828;47.064;15.422;2023-03-31T15:35:57;16.50;99.90
21340;DHT22;10828;47.064;15.422;2023-03-31T15:38:32;16.40;99.90
21340;DHT22;10828;47.064;15.422;2023-03-31T15:41:16;16.30;99.90
21340;DHT22;10828;47.064;15.422;2023-03-31T15:43:49;16.30;99.90
21340;DHT22;10828;47.064;15.422;2023-03-31T15:46:54;16.30;99.90
21340;DHT22;10828;47.064;15.422;2023-03-31T15:49:30;16.30;99.90
21340;DHT22;10828;47.064;15.422;2023-03-31T15:52:03;16.20;99.90
21340;DHT22;10828;47.064;15.422;2023-03-31T15:54:35;16.20;99.90
21340;DHT22;10828;47.064;15.422;2023-03-31T15:57:08;16.10;99.90
21340;DHT22;10828;47.064;15.422;2023-03-31T15:59:49;16.10;99.90
21340;DHT22;10828;47.064;15.422;2023-03-31T16:02:21;16.00;99.90
21340;DHT22;10828;47.064;15.422;2023-03-31T16:04:55;16.00;99.90
21340;DHT22;10828;47.064;15.422;2023-03-31T16:07:28;15.90;99.90
21340;DHT22;10828;47.064;15.422;2023-03-31T16:10:13;15.80;99.90
21340;DHT22;10828;47.064;15.422;2023-03-31T16:13:00;15.80;99.90
21340;DHT22;10828;47.064;15.422;2023-03-31T16:15:35;15.70;99.90
21340;DHT22;10828;47.064;15.422;2023-03-31T16:18:29;15.70;99.90
21340;DHT22;10828;47.064;15.422;2023-03-31T16:20:59;15.70;99.90
21340;DHT22;10828;47.064;15.422;2023-03-31T16:23:34;15.60;99.90
21340;DHT22;10828;47.064;15.422;2023-03-31T16:26:04;15.60;99.90
21340;DHT22;10828;47.064;15.422;2023-03-31T16:28:36;15.60;99.90
21340;DHT22;10828;47.064;15.422;2023-03-31T16:31:36;15.50;99.90
21340;DHT22;10828;47.064;15.422;2023-03-31T16:34:06;15.50;99.90
21340;DHT22;10828;47.064;15.422;2023-03-31T16:36:34;15.60;99.90
21340;DHT22;10828;47.064;15.422;2023-03-31T16:39:04;15.60;99.90
21340;DHT22;10828;47.064;15.422;2023-03-31T16:41:36;15.60;99.90
21340;DHT22;10828;47.064;15.422;2023-03-31T16:44:03;15.50;99.90
21340;DHT22;10828;47.064;15.422;2023-03-31T16:46:30;15.50;99.90
21340;DHT22;10828;47.064;15.422;2023-03-31T16:49:06;15.50;99.90
21340;DHT22;10828;47.064;15.422;2023-03-31T16:51:32;15.50;99.90
21340;DHT22;10828;47.064;15.422;2023-03-31T16:53:58;15.50;99.90
21340;DHT22;10828;47.064;15.422;2023-03-31T16:56:26;15.50;99.90
21340;DHT22;10828;47.064;15.422;2023-03-31T16:58:54;15.70;99.90
21340;DHT22;10828;47.064;15.422;2023-03-31T17:01:22;15.80;99.90
21340;DHT22;10828;47.064;15.422;2023-03-31T17:03:53;15.60;99.90
21340;DHT22;10828;47.064;15.422;2023-03-31T17:06:27;15.30;99.90
21340;DHT22;10828;47.064;15.422;2023-03-31T17:08:52;15.10;99.90
21340;DHT22;10828;47.064;15.422;2023-03-31T17:11:25;14.90;99.90
21340;DHT22;10828;47.064;15.422;2023-03-31T17:14:00;14.60;99.90
21340;DHT22;10828;47.064;15.422;2023-03-31T17:16:29;14.40;99.90
21340;DHT22;10828;47.064;15.422;2023-03-31T17:18:56;14.00;99.90
21340;DHT22;10828;47.064;15.422;2023-03-31T17:21:28;13.80;99.90
21340;DHT22;10828;47.064;15.422;2023-03-31T17:23:57;13.60;99.90
21340;DHT22;10828;47.064;15.422;2023-03-31T17:26:27;13.40;99.90
21340;DHT22;10828;47.064;15.422;2023-03-31T17:28:53;13.30;99.90
21340;DHT22;10828;47.064;15.422;2023-03-31T17:31:21;12.90;99.90
21340;DHT22;10828;47.064;15.422;2023-03-31T17:33:49;12.60;99.90
21340;DHT22;10828;47.064;15.422;2023-03-31T17:36:15;12.30;99.90
21340;DHT22;10828;47.064;15.422;2023-03-31T17:38:43;12.00;99.90
21340;DHT22;10828;47.064;15.422;2023-03-31T17:41:13;11.90;99.90
21340;DHT22;10828;47.064;15.422;2023-03-31T17:43:45;11.60;99.90
21340;DHT22;10828;47.064;15.422;2023-03-31T17:46:15;11.30;99.90
21340;DHT22;10828;47.064;15.422;2023-03-31T17:48:43;11.20;99.90
21340;DHT22;10828;47.064;15.422;2023-03-31T17:51:18;10.90;99.90
21340;DHT22;10828;47.064;15.422;2023-03-31T17:53:45;10.60;99.90
21340;DHT22;10828;47.064;15.422;2023-03-31T17:56:14;10.40;99.90
21340;DHT22;10828;47.064;15.422;2023-03-31T17:58:45;10.30;99.90
21340;DHT22;10828;47.064;15.422;2023-03-31T18:01:14;10.30;99.90
21340;DHT22;10828;47.064;15.422;2023-03-31T18:03:42;10.40;99.90
21340;DHT22;10828;47.064;15.422;2023-03-31T18:06:13;10.50;99.90
21340;DHT22;10828;47.064;15.422;2023-03-31T18:08:41;10.50;99.90
21340;DHT22;10828;47.064;15.422;2023-03-31T18:11:09;10.60;99.90
21340;DHT22;10828;47.064;15.422;2023-03-31T18:13:36;10.60;99.90
21340;DHT22;10828;47.064;15.422;2023-03-31T18:16:05;10.60;99.90
21340;DHT22;10828;47.064;15.422;2023-03-31T18:18:40;10.70;99.90
21340;DHT22;10828;47.064;15.422;2023-03-31T18:21:15;10.70;99.90
21340;DHT22;10828;47.064;15.422;2023-03-31T18:23:44;10.70;99.90
21340;DHT22;10828;47.064;15.422;2023-03-31T18:26:13;10.80;99.90
21340;DHT22;10828;47.064;15.422;2023-03-31T18:28:48;10.70;99.90
21340;DHT22;10828;47.064;15.422;2023-03-31T18:31:29;10.70;99.90
21340;DHT22;10828;47.064;15.422;2023-03-31T18:34:01;10.60;99.90
21340;DHT22;10828;47.064;15.422;2023-03-31T18:36:29;10.50;99.90
21340;DHT22;10828;47.064;15.422;2023-03-31T18:38:59;10.50;99.90
21340;DHT22;10828;47.064;15.422;2023-03-31T18:41:44;10.50;99.90
21340;DHT22;10828;47.064;15.422;2023-03-31T18:44:15;10.60;99.90